createdAt,value
2023-11-20T00:00:19.249Z,93704.84
2023-11-20T00:02:48.520Z,93726.06
2023-11-20T00:05:16.416Z,93729.25
2023-11-20T00:07:44.222Z,93736.06
2023-11-20T00:10:12.209Z,93738.28
2023-11-20T00:12:39.970Z,93745.28
2023-11-20T00:15:09.577Z,93750.88
2023-11-20T00:17:38.261Z,93750.09
2023-11-20T00:20:08.633Z,93750.09
2023-11-20T00:22:36.371Z,93757.69
2023-11-20T00:25:04.463Z,93756.69
2023-11-20T00:27:32.385Z,93764.50
2023-11-20T00:30:00.178Z,93769.50
2023-11-20T00:32:28.892Z,93760.09
2023-11-20T00:34:56.656Z,93757.69
2023-11-20T00:37:25.835Z,93754.28
2023-11-20T00:39:53.735Z,93763.69
2023-11-20T00:42:21.492Z,93762.91
2023-11-20T00:44:49.272Z,93764.50
2023-11-20T00:47:17.816Z,93764.28
2023-11-20T00:49:45.870Z,93766.09
2023-11-20T00:52:13.969Z,93772.13
2023-11-20T00:54:43.097Z,93776.16
2023-11-20T00:57:11.133Z,93775.34
2023-11-20T00:59:38.904Z,93770.13
2023-11-20T01:02:08.048Z,93778.91
2023-11-20T01:04:36.391Z,93775.34
2023-11-20T01:07:04.938Z,93774.50
2023-11-20T01:09:32.692Z,93770.31
2023-11-20T01:12:01.791Z,93759.31
2023-11-20T01:14:29.551Z,93758.50
2023-11-20T01:16:58.411Z,93753.09
2023-11-20T01:19:26.248Z,93751.09
2023-11-20T01:21:54.166Z,93736.88
2023-11-20T01:24:21.957Z,93726.88
2023-11-20T01:26:50.349Z,93715.25
2023-11-20T01:29:19.472Z,93702.63
2023-11-20T01:31:47.270Z,93685.81
2023-11-20T01:34:15.086Z,93691.03
2023-11-20T01:36:42.869Z,93674.19
2023-11-20T01:39:11.028Z,93666.38
2023-11-20T01:41:38.921Z,93670.00
2023-11-20T01:44:07.428Z,93650.56
2023-11-20T01:46:37.970Z,93639.56
2023-11-20T01:49:06.808Z,93634.78
2023-11-20T01:51:35.839Z,93636.38
2023-11-20T01:54:05.692Z,93627.97
2023-11-20T01:56:34.819Z,93614.75
2023-11-20T01:59:07.027Z,93617.16
2023-11-20T02:01:36.476Z,93602.75
2023-11-20T02:04:05.970Z,93591.16
2023-11-20T02:06:34.336Z,93584.34
2023-11-20T02:09:02.381Z,93585.34
2023-11-20T02:11:30.936Z,93581.97
2023-11-20T02:13:58.788Z,93595.38
2023-11-20T02:16:26.734Z,93591.16
2023-11-20T02:18:55.894Z,93596.97
2023-11-20T02:21:23.682Z,93594.34
2023-11-20T02:23:51.694Z,93598.56
2023-11-20T02:26:41.450Z,93601.97
2023-11-20T02:29:22.635Z,93613.75
2023-11-20T02:31:51.863Z,93618.16
2023-11-20T02:34:21.236Z,93564.16
2023-11-20T02:36:49.861Z,93587.56
2023-11-20T02:39:17.761Z,93589.38
2023-11-20T02:41:46.361Z,93628.78
2023-11-20T02:44:14.375Z,93651.38
2023-11-20T02:46:44.375Z,93631.38
2023-11-20T02:49:14.648Z,93644.78
2023-11-20T02:51:43.601Z,93646.78
2023-11-20T02:54:14.551Z,93658.19
2023-11-20T02:56:42.814Z,93652.78
2023-11-20T02:59:10.726Z,93667.19
2023-11-20T03:01:38.617Z,93692.63
2023-11-20T03:04:07.193Z,93687.59
2023-11-20T03:06:36.464Z,93722.25
2023-11-20T03:09:04.891Z,93760.91
2023-11-20T03:11:33.266Z,93762.09
2023-11-20T03:14:01.707Z,93755.28
2023-11-20T03:16:29.792Z,93742.47
2023-11-20T03:18:59.094Z,93744.09
2023-11-20T03:21:27.390Z,93744.47
2023-11-20T03:23:56.825Z,93752.09
2023-11-20T03:26:24.865Z,93765.72
2023-11-20T03:28:52.953Z,93758.91
2023-11-20T03:31:21.319Z,93749.88
2023-11-20T03:33:49.572Z,93738.47
2023-11-20T03:36:17.681Z,93755.50
2023-11-20T03:38:45.698Z,93746.09
2023-11-20T03:41:15.170Z,93743.47
2023-11-20T03:43:43.047Z,93752.28
2023-11-20T03:46:12.833Z,93735.28
2023-11-20T03:48:40.790Z,93725.06
2023-11-20T03:51:08.888Z,93713.47
2023-11-20T03:53:36.918Z,93684.22
2023-11-20T03:56:05.119Z,93683.63
2023-11-20T03:58:34.426Z,93668.19
2023-11-20T04:01:03.760Z,93684.44
2023-11-20T04:03:32.076Z,93677.63
2023-11-20T04:05:59.918Z,93676.00
2023-11-20T04:08:27.797Z,93650.19
2023-11-20T04:10:55.676Z,93668.38
2023-11-20T04:13:23.619Z,93646.59
2023-11-20T04:15:52.883Z,93659.97
2023-11-20T04:18:21.280Z,93652.78
2023-11-20T04:20:52.282Z,93672.00
2023-11-20T04:23:20.598Z,93674.41
2023-11-20T04:25:48.499Z,93672.59
2023-11-20T04:28:16.493Z,93676.00
2023-11-20T04:30:44.609Z,93684.44
2023-11-20T04:33:13.896Z,93695.44
2023-11-20T04:35:43.324Z,93704.84
2023-11-20T04:38:11.348Z,93720.47
2023-11-20T04:40:39.299Z,93728.88
2023-11-20T04:43:07.134Z,93738.88
2023-11-20T04:45:35.001Z,93740.47
2023-11-20T04:48:04.929Z,93750.50
2023-11-20T04:50:34.507Z,93739.69
2023-11-20T04:53:02.486Z,93779.31
2023-11-20T04:55:30.589Z,93767.13
2023-11-20T04:57:59.437Z,93778.53
2023-11-20T05:00:29.680Z,93790.75
2023-11-20T05:02:57.816Z,93794.78
2023-11-20T05:05:25.862Z,93814.19
2023-11-20T05:07:55.750Z,93795.34
2023-11-20T05:10:23.722Z,93825.41
2023-11-20T05:12:52.267Z,93821.00
2023-11-20T05:15:20.234Z,93818.59
2023-11-20T05:17:48.769Z,93834.63
2023-11-20T05:20:17.387Z,93818.59
2023-11-20T05:22:47.636Z,93836.22
2023-11-20T05:25:17.369Z,93829.81
2023-11-20T05:27:45.729Z,93748.47
2023-11-20T05:30:15.068Z,93839.84
2023-11-20T05:32:42.986Z,93833.63
2023-11-20T05:35:11.001Z,93834.44
2023-11-20T05:37:38.995Z,93842.25
2023-11-20T05:40:08.002Z,93841.44
2023-11-20T05:42:37.432Z,93839.44
2023-11-20T05:45:06.723Z,93839.84
2023-11-20T05:47:34.814Z,93832.22
2023-11-20T05:50:04.424Z,93825.03
2023-11-20T05:52:33.725Z,93837.84
2023-11-20T05:55:03.599Z,93834.44
2023-11-20T05:57:32.127Z,93848.84
2023-11-20T06:00:01.360Z,93849.66
2023-11-20T06:02:29.343Z,93851.06
2023-11-20T06:04:57.141Z,93856.66
2023-11-20T06:07:25.233Z,93856.47
2023-11-20T06:09:53.035Z,93833.84
2023-11-20T06:12:21.044Z,93855.66
2023-11-20T06:14:49.007Z,93863.09
2023-11-20T06:17:18.923Z,93850.47
2023-11-20T06:19:46.851Z,93843.84
2023-11-20T06:22:15.249Z,93829.81
2023-11-20T06:24:44.032Z,93797.56
2023-11-20T06:27:12.015Z,93832.44
2023-11-20T06:29:42.476Z,93820.22
2023-11-20T06:32:11.538Z,93830.63
2023-11-20T06:34:40.780Z,93833.03
2023-11-20T06:37:08.983Z,93815.00
2023-11-20T06:39:37.701Z,93798.56
2023-11-20T06:42:06.197Z,93822.22
2023-11-20T06:44:34.117Z,93800.97
2023-11-20T06:47:02.150Z,93789.34
2023-11-20T06:49:30.209Z,93810.41
2023-11-20T06:51:59.431Z,93797.34
2023-11-20T06:54:27.314Z,93801.38
2023-11-20T06:56:55.758Z,93804.59
2023-11-20T06:59:24.075Z,93803.00
2023-11-20T07:01:51.974Z,93797.78
2023-11-20T07:04:20.231Z,93798.94
2023-11-20T07:06:48.670Z,93815.59
2023-11-20T07:09:19.632Z,93813.00
2023-11-20T07:11:47.937Z,93803.34
2023-11-20T07:14:16.130Z,93829.81
2023-11-20T07:16:44.146Z,93820.63
2023-11-20T07:19:12.052Z,93818.19
2023-11-20T07:21:40.988Z,93832.84
2023-11-20T07:24:09.320Z,93846.66
2023-11-20T07:26:39.676Z,93846.44
2023-11-20T07:29:07.688Z,93878.50
2023-11-20T07:31:37.986Z,93887.94
2023-11-20T07:34:08.152Z,93879.50
2023-11-20T07:36:36.091Z,93885.13
2023-11-20T07:39:04.994Z,93905.56
2023-11-20T07:41:32.972Z,93896.34
2023-11-20T07:44:02.297Z,93914.41
2023-11-20T07:46:30.698Z,93936.47
2023-11-20T07:48:59.428Z,93944.06
2023-11-20T07:51:29.233Z,93968.94
2023-11-20T07:53:57.212Z,93991.00
2023-11-20T07:56:25.164Z,93978.94
2023-11-20T07:58:53.600Z,93997.81
2023-11-20T08:01:24.254Z,94006.03
2023-11-20T08:03:55.097Z,94009.44
2023-11-20T08:06:24.081Z,94016.25
2023-11-20T08:08:51.959Z,94014.28
2023-11-20T08:11:19.773Z,94021.09
2023-11-20T08:13:47.726Z,94041.34
2023-11-20T08:16:15.787Z,94053.19
2023-11-20T08:18:45.025Z,94080.06
2023-11-20T08:21:12.906Z,94074.84
2023-11-20T08:23:40.812Z,94123.44
2023-11-20T08:26:08.723Z,94169.59
2023-11-20T08:28:36.708Z,94175.16
2023-11-20T08:31:07.296Z,94270.03
2023-11-20T08:33:36.279Z,94309.41
2023-11-20T08:36:06.837Z,94382.59
2023-11-20T08:38:34.835Z,94439.06
2023-11-20T08:41:03.616Z,94493.63
2023-11-20T08:43:33.875Z,94562.97
2023-11-20T08:46:09.155Z,94627.63
2023-11-20T08:48:43.020Z,94640.88
2023-11-20T08:51:12.416Z,94662.66
2023-11-20T08:53:40.430Z,94649.75
2023-11-20T08:56:11.281Z,94605.06
2023-11-20T08:58:39.254Z,94601.06
2023-11-20T09:01:07.321Z,94587.59
2023-11-20T09:03:35.313Z,94550.72
2023-11-20T09:06:05.381Z,94558.97
2023-11-20T09:08:34.711Z,94535.44
2023-11-20T09:11:03.497Z,94517.72
2023-11-20T09:13:31.478Z,94471.03
2023-11-20T09:16:00.145Z,94452.94
2023-11-20T09:18:28.998Z,94448.31
2023-11-20T09:21:00.175Z,94466.25
2023-11-20T09:23:29.071Z,94467.84
2023-11-20T09:25:58.946Z,94451.72
2023-11-20T09:28:27.113Z,94471.28
2023-11-20T09:30:55.809Z,94519.34
2023-11-20T09:33:23.803Z,94580.53
2023-11-20T09:35:51.773Z,94706.59
2023-11-20T09:38:19.704Z,94816.13
2023-11-20T09:40:47.853Z,94959.81
2023-11-20T09:43:19.802Z,95057.91
2023-11-20T09:45:53.373Z,95132.59
2023-11-20T09:48:27.501Z,95168.53
2023-11-20T09:51:07.253Z,95181.50
2023-11-20T09:53:41.461Z,95193.97
2023-11-20T09:56:12.335Z,95251.00
2023-11-20T09:58:43.005Z,95575.88
2023-11-20T10:01:15.308Z,96304.13
2023-11-20T10:03:45.307Z,97041.22
2023-11-20T10:06:16.487Z,97437.50
2023-11-20T10:08:45.554Z,97356.00
2023-11-20T10:11:17.390Z,97251.63
2023-11-20T10:13:46.943Z,97032.16
2023-11-20T10:16:19.413Z,97054.94
2023-11-20T10:18:47.744Z,97335.88
2023-11-20T10:21:15.835Z,97840.81
2023-11-20T10:23:43.958Z,98212.00
2023-11-20T10:26:12.303Z,98590.28
2023-11-20T10:28:40.837Z,98958.06
2023-11-20T10:31:10.586Z,99232.75
2023-11-20T10:33:39.354Z,99283.69
2023-11-20T10:36:15.159Z,99343.16
2023-11-20T10:38:44.383Z,99457.66
2023-11-20T10:41:13.139Z,99357.00
2023-11-20T10:43:42.965Z,99090.31
2023-11-20T10:46:12.686Z,99156.59
2023-11-20T10:48:41.309Z,99271.81
2023-11-20T10:51:10.914Z,99329.13
2023-11-20T10:53:43.850Z,99324.09
2023-11-20T10:56:13.931Z,99197.34
2023-11-20T10:58:42.758Z,98998.06
2023-11-20T11:01:12.282Z,98874.88
2023-11-20T11:03:42.386Z,98875.72
2023-11-20T11:06:13.049Z,99050.81
2023-11-20T11:08:45.504Z,99116.81
2023-11-20T11:11:15.868Z,99245.41
2023-11-20T11:13:46.089Z,99173.13
2023-11-20T11:16:26.271Z,99292.16
2023-11-20T11:19:07.896Z,99310.34
2023-11-20T11:21:45.673Z,99442.41
2023-11-20T11:24:16.064Z,99207.84
2023-11-20T11:26:53.667Z,98635.25
2023-11-20T11:29:26.888Z,98331.56
2023-11-20T11:32:21.759Z,98077.56
2023-11-20T11:35:08.572Z,97487.59
2023-11-20T11:37:47.273Z,96997.25
2023-11-20T11:40:22.566Z,96535.56
2023-11-20T11:42:57.621Z,96229.53
2023-11-20T11:45:32.184Z,95996.84
2023-11-20T11:48:02.894Z,95801.81
2023-11-20T11:50:30.852Z,95735.09
2023-11-20T11:52:59.885Z,95590.34
2023-11-20T11:55:28.247Z,95440.13
2023-11-20T11:58:04.134Z,95343.00
2023-11-20T12:00:33.557Z,95310.50
2023-11-20T12:03:10.193Z,95278.75
2023-11-20T12:06:19.383Z,95220.97
2023-11-20T12:08:49.680Z,95179.00
2023-11-20T12:11:50.379Z,95080.84
2023-11-20T12:14:18.353Z,95061.47
2023-11-20T12:16:47.071Z,95074.00
2023-11-20T12:19:17.866Z,95065.28
2023-11-20T12:21:46.264Z,95072.56
2023-11-20T12:24:14.697Z,95041.19
2023-11-20T12:26:44.258Z,95011.53
2023-11-20T12:29:12.811Z,95009.59
2023-11-20T12:31:40.873Z,94949.75
2023-11-20T12:34:09.437Z,94944.41
2023-11-20T12:36:39.913Z,94935.91
2023-11-20T12:39:09.888Z,94931.81
2023-11-20T12:41:37.906Z,94920.97
2023-11-20T12:44:06.224Z,94887.47
2023-11-20T12:46:34.207Z,94875.63
2023-11-20T12:49:03.476Z,94796.81
2023-11-20T12:51:31.527Z,94685.53
2023-11-20T12:54:02.288Z,94644.91
2023-11-20T12:56:30.703Z,94610.31
2023-11-20T12:58:59.052Z,94583.28
2023-11-20T13:01:27.401Z,94583.31
2023-11-20T13:03:55.802Z,94543.84
2023-11-20T13:06:23.894Z,94463.94
2023-11-20T13:08:51.799Z,94455.94
2023-11-20T13:11:23.721Z,94373.63
2023-11-20T13:13:52.570Z,94369.63
2023-11-20T13:16:41.004Z,94376.94
2023-11-20T13:19:09.246Z,94337.94
2023-11-20T13:21:37.390Z,94314.59
2023-11-20T13:24:07.333Z,94286.09
2023-11-20T13:26:44.322Z,94264.34
2023-11-20T13:29:12.548Z,94244.06
2023-11-20T13:31:43.338Z,94213.75
2023-11-20T13:34:11.441Z,94163.56
2023-11-20T13:36:39.936Z,94136.22
2023-11-20T13:39:11.612Z,94118.19
2023-11-20T13:41:42.303Z,94083.25
2023-11-20T13:44:10.654Z,94101.94
2023-11-20T13:46:43.233Z,94096.09
2023-11-20T13:49:12.132Z,94063.16
2023-11-20T13:51:40.574Z,94083.47
2023-11-20T13:54:10.819Z,94045.94
2023-11-20T13:56:39.461Z,94030.09
2023-11-20T13:59:10.583Z,94014.25
2023-11-20T14:01:40.245Z,94032.28
2023-11-20T14:04:11.014Z,94023.66
2023-11-20T14:06:39.973Z,94011.84
2023-11-20T14:09:08.087Z,93997.59
2023-11-20T14:11:36.204Z,93987.38
2023-11-20T14:14:04.489Z,93996.59
2023-11-20T14:16:33.945Z,93988.19
2023-11-20T14:19:02.049Z,94000.22
2023-11-20T14:21:30.153Z,93979.16
2023-11-20T14:23:58.031Z,93957.31
2023-11-20T14:26:32.225Z,93962.13
2023-11-20T14:29:02.870Z,93977.94
2023-11-20T14:31:32.136Z,93980.34
2023-11-20T14:34:01.626Z,93985.38
2023-11-20T14:36:29.483Z,93959.72
2023-11-20T14:38:59.592Z,93948.88
2023-11-20T14:41:28.016Z,93925.03
2023-11-20T14:43:55.912Z,93898.75
2023-11-20T14:46:24.139Z,93923.19
2023-11-20T14:48:52.162Z,93942.88
2023-11-20T14:51:22.141Z,93936.66
2023-11-20T14:53:52.495Z,93951.69
2023-11-20T14:56:20.897Z,93958.91
2023-11-20T14:58:48.809Z,93986.97
2023-11-20T15:01:18.280Z,94008.63
2023-11-20T15:03:46.446Z,94032.91
2023-11-20T15:06:15.328Z,94045.31
2023-11-20T15:08:44.987Z,94079.06
2023-11-20T15:11:12.968Z,94102.34
2023-11-20T15:13:41.289Z,94118.59
2023-11-20T15:16:09.518Z,94156.34
2023-11-20T15:18:37.996Z,94122.16
2023-11-20T15:21:07.058Z,94162.94
2023-11-20T15:23:42.539Z,94173.81
2023-11-20T15:26:14.000Z,94168.59
2023-11-20T15:28:41.986Z,94171.19
2023-11-20T15:31:09.933Z,94172.22
2023-11-20T15:33:43.540Z,94163.78
2023-11-20T15:36:11.963Z,94153.75
2023-11-20T15:38:39.840Z,94143.84
2023-11-20T15:41:09.073Z,94155.94
2023-11-20T15:43:38.519Z,94181.44
2023-11-20T15:46:14.250Z,94171.59
2023-11-20T15:48:42.376Z,94163.13
2023-11-20T15:51:10.512Z,94172.00
2023-11-20T15:53:38.506Z,94198.09
2023-11-20T15:56:10.822Z,94234.44
2023-11-20T15:58:41.444Z,94218.97
2023-11-20T16:01:10.151Z,94204.91
2023-11-20T16:03:38.787Z,94218.56
2023-11-20T16:06:10.332Z,94258.53
2023-11-20T16:08:41.416Z,94271.03
2023-11-20T16:11:21.775Z,94278.66
2023-11-20T16:13:51.774Z,94224.56
2023-11-20T16:16:21.188Z,94170.28
2023-11-20T16:18:55.052Z,94261.09
2023-11-20T16:21:25.689Z,94311.81
2023-11-20T16:23:59.758Z,94256.66
2023-11-20T16:26:28.197Z,94279.78
2023-11-20T16:29:13.988Z,94305.16
2023-11-20T16:31:58.552Z,94253.06
2023-11-20T16:34:34.838Z,94268.34
2023-11-20T16:37:06.727Z,94285.88
2023-11-20T16:39:34.663Z,94288.09
2023-11-20T16:42:02.943Z,94261.94
2023-11-20T16:44:32.524Z,94260.38
2023-11-20T16:47:00.556Z,94261.38
2023-11-20T16:49:29.113Z,94255.31
2023-11-20T16:51:58.306Z,94258.31
2023-11-20T16:54:27.191Z,94290.50
2023-11-20T16:56:58.133Z,94295.72
2023-11-20T16:59:27.311Z,94269.63
2023-11-20T17:01:57.012Z,94247.69
2023-11-20T17:04:25.638Z,94259.94
2023-11-20T17:07:04.364Z,94258.97
2023-11-20T17:09:32.521Z,94263.00
2023-11-20T17:12:05.551Z,94248.09
2023-11-20T17:14:34.433Z,94260.38
2023-11-20T17:17:03.909Z,94224.16
2023-11-20T17:19:31.915Z,94278.88
2023-11-20T17:22:00.309Z,94270.81
2023-11-20T17:24:30.634Z,94274.03
2023-11-20T17:26:58.521Z,94265.41
2023-11-20T17:29:26.631Z,94263.00
2023-11-20T17:31:55.080Z,94265.59
2023-11-20T17:34:24.683Z,94268.59
2023-11-20T17:36:52.602Z,94272.44
2023-11-20T17:39:23.884Z,94256.38
2023-11-20T17:41:53.057Z,94240.66
2023-11-20T17:44:20.881Z,94245.50
2023-11-20T17:46:48.937Z,94209.94
2023-11-20T17:49:16.872Z,94203.31
2023-11-20T17:51:48.537Z,94176.81
2023-11-20T17:54:16.528Z,94162.75
2023-11-20T17:56:48.107Z,94161.56
2023-11-20T17:59:18.373Z,94117.97
2023-11-20T18:01:46.520Z,94120.19
2023-11-20T18:04:14.946Z,94092.69
2023-11-20T18:06:43.013Z,94074.44
2023-11-20T18:09:14.291Z,94065.63
2023-11-20T18:11:42.337Z,93999.72
2023-11-20T18:14:10.475Z,94072.44
2023-11-20T18:16:39.011Z,94083.88
2023-11-20T18:19:07.543Z,94082.47
2023-11-20T18:21:43.441Z,94045.94
2023-11-20T18:24:18.024Z,94041.72
2023-11-20T18:26:46.339Z,94035.69
2023-11-20T18:29:16.245Z,94038.75
2023-11-20T18:31:45.352Z,93981.31
2023-11-20T18:34:13.581Z,94014.03
2023-11-20T18:36:41.488Z,93983.75
2023-11-20T18:39:09.679Z,93970.53
2023-11-20T18:41:43.457Z,93956.28
2023-11-20T18:44:14.260Z,93956.50
2023-11-20T18:46:42.282Z,93944.28
2023-11-20T18:49:10.746Z,93917.97
2023-11-20T18:51:38.893Z,93909.38
2023-11-20T18:54:08.081Z,93898.34
2023-11-20T18:56:36.113Z,93875.91
2023-11-20T18:59:05.463Z,93882.72
2023-11-20T19:01:33.676Z,93863.47
2023-11-20T19:04:03.635Z,93870.50
2023-11-20T19:06:31.728Z,93867.50
2023-11-20T19:08:59.996Z,93835.00
2023-11-20T19:11:28.169Z,93855.47
2023-11-20T19:13:56.178Z,93845.41
2023-11-20T19:16:25.784Z,93870.69
2023-11-20T19:18:54.042Z,93871.50
2023-11-20T19:21:22.162Z,93821.78
2023-11-20T19:23:50.115Z,93847.84
2023-11-20T19:26:18.212Z,93752.88
2023-11-20T19:28:46.205Z,93796.94
2023-11-20T19:31:14.262Z,93812.16
2023-11-20T19:33:45.857Z,93792.94
2023-11-20T19:36:13.759Z,93779.53
2023-11-20T19:38:42.214Z,93743.25
2023-11-20T19:41:10.277Z,93721.25
2023-11-20T19:43:38.361Z,93735.28
2023-11-20T19:46:07.381Z,93736.88
2023-11-20T19:48:35.464Z,93719.28
2023-11-20T19:51:05.972Z,93714.88
2023-11-20T19:53:35.071Z,93721.03
2023-11-20T19:56:04.182Z,93696.63
2023-11-20T19:58:32.124Z,93710.03
2023-11-20T20:01:00.329Z,93712.44
2023-11-20T20:03:29.177Z,93721.03
2023-11-20T20:05:57.046Z,93740.69
2023-11-20T20:08:26.512Z,93756.69
2023-11-20T20:10:54.525Z,93774.72
2023-11-20T20:13:25.396Z,93795.94
2023-11-20T20:15:53.523Z,93803.75
2023-11-20T20:18:21.693Z,93813.78
2023-11-20T20:20:49.815Z,93836.63
2023-11-20T20:23:20.605Z,93833.22
2023-11-20T20:25:50.031Z,93822.59
2023-11-20T20:28:18.107Z,93811.38
2023-11-20T20:30:46.478Z,93828.81
2023-11-20T20:33:14.817Z,93815.38
2023-11-20T20:35:42.917Z,93818.97
2023-11-20T20:38:11.282Z,93798.56
2023-11-20T20:40:39.473Z,93854.25
2023-11-20T20:43:08.890Z,93887.13
2023-11-20T20:45:38.019Z,93893.53
2023-11-20T20:48:06.837Z,93892.72
2023-11-20T20:50:34.959Z,93923.19
2023-11-20T20:53:03.597Z,93948.09
2023-11-20T20:55:31.797Z,93948.09
2023-11-20T20:58:00.422Z,93942.88
2023-11-20T21:00:32.553Z,93949.69
2023-11-20T21:03:00.549Z,93956.69
2023-11-20T21:05:30.652Z,93979.56
2023-11-20T21:07:58.868Z,93988.56
2023-11-20T21:10:27.191Z,93931.59
2023-11-20T21:12:55.206Z,93995.41
2023-11-20T21:15:25.090Z,93965.69
2023-11-20T21:17:54.524Z,93990.97
2023-11-20T21:20:22.507Z,93970.53
2023-11-20T21:22:50.705Z,93995.41
2023-11-20T21:25:21.285Z,93954.69
2023-11-20T21:27:49.430Z,93974.16
2023-11-20T21:30:18.242Z,93952.06
2023-11-20T21:32:46.161Z,93924.75
2023-11-20T21:35:15.609Z,93984.75
2023-11-20T21:37:43.788Z,93988.78
2023-11-20T21:40:12.783Z,94029.88
2023-11-20T21:42:41.043Z,94068.44
2023-11-20T21:45:09.637Z,94100.13
2023-11-20T21:47:38.499Z,94112.56
2023-11-20T21:50:09.449Z,94139.84
2023-11-20T21:52:39.961Z,94163.97
2023-11-20T21:55:09.457Z,94142.03
2023-11-20T21:57:38.269Z,94159.50
2023-11-20T22:00:08.123Z,94207.94
2023-11-20T22:02:36.211Z,94192.25
2023-11-20T22:05:06.070Z,94252.31
2023-11-20T22:07:34.161Z,94252.13
2023-11-20T22:10:03.546Z,94251.50
2023-11-20T22:12:31.541Z,94304.56
2023-11-20T22:15:00.215Z,94296.13
2023-11-20T22:17:28.986Z,94283.06
2023-11-20T22:19:57.303Z,94281.66
2023-11-20T22:22:25.376Z,94285.47
2023-11-20T22:24:53.532Z,94269.22
2023-11-20T22:27:22.843Z,94284.09
2023-11-20T22:29:51.019Z,94269.56
2023-11-20T22:32:19.392Z,94288.28
2023-11-20T22:34:55.135Z,94299.94
2023-11-20T22:37:30.723Z,94291.25
2023-11-20T22:39:58.661Z,94299.72
2023-11-20T22:42:28.743Z,94329.88
2023-11-20T22:44:57.788Z,94335.50
2023-11-20T22:47:25.665Z,94339.94
2023-11-20T22:49:54.221Z,94356.00
2023-11-20T22:52:23.721Z,94353.97
2023-11-20T22:54:51.595Z,94392.22
2023-11-20T22:57:19.738Z,94370.03
2023-11-20T22:59:49.752Z,94329.22
2023-11-20T23:02:18.016Z,94376.94
2023-11-20T23:04:46.160Z,94390.34
2023-11-20T23:07:14.121Z,94407.09
2023-11-20T23:09:42.086Z,94401.84
2023-11-20T23:12:10.014Z,94401.44
2023-11-20T23:14:37.837Z,94398.63
2023-11-20T23:17:07.285Z,94412.50
2023-11-20T23:19:35.613Z,94401.44
2023-11-20T23:22:03.865Z,94395.22
2023-11-20T23:24:31.744Z,94400.66
2023-11-20T23:26:59.695Z,94419.53
2023-11-20T23:29:27.676Z,94420.13
2023-11-20T23:31:55.681Z,94429.19
2023-11-20T23:34:25.918Z,94433.63
2023-11-20T23:36:53.810Z,94405.66
2023-11-20T23:39:22.299Z,94401.78
2023-11-20T23:41:50.924Z,94420.94
2023-11-20T23:44:19.055Z,94427.38
2023-11-20T23:46:48.228Z,94447.09
2023-11-20T23:49:16.193Z,94437.03
2023-11-20T23:51:45.753Z,94444.84
2023-11-20T23:54:13.646Z,94478.25
2023-11-20T23:56:41.532Z,94469.81
2023-11-20T23:59:10.723Z,94487.88
